createdAt,value
2022-10-05T00:04:58.882Z,101853.97
2022-10-05T00:09:59.736Z,101864.97
2022-10-05T00:15:01.972Z,101865.78
2022-10-05T00:20:02.627Z,101881.28
2022-10-05T00:25:03.138Z,101875.91
2022-10-05T00:30:11.555Z,101874.72
2022-10-05T00:35:13.071Z,101881.63
2022-10-05T00:40:24.141Z,101900.72
2022-10-05T00:45:28.406Z,101893.94
2022-10-05T00:50:55.716Z,101895.28
2022-10-05T00:56:02.607Z,101888.97
2022-10-05T01:01:10.780Z,101901.06
2022-10-05T01:06:22.693Z,101899.63
2022-10-05T01:11:29.137Z,101905.28
2022-10-05T01:16:37.217Z,101912.41
2022-10-05T01:21:43.850Z,101908.91
2022-10-05T01:27:20.536Z,101913.19
2022-10-05T01:32:27.162Z,101925.72
2022-10-05T01:37:31.422Z,101927.34
2022-10-05T01:42:45.464Z,101925.03
2022-10-05T01:47:49.279Z,101917.81
2022-10-05T01:52:57.690Z,101914.78
2022-10-05T01:58:08.842Z,101904.84
2022-10-05T02:03:14.841Z,101929.97
2022-10-05T02:08:17.896Z,101930.31
2022-10-05T02:13:24.034Z,101937.09
2022-10-05T02:18:28.984Z,101950.25
2022-10-05T02:23:33.967Z,101953.88
2022-10-05T02:28:38.155Z,101963.06
2022-10-05T02:33:38.751Z,101960.13
2022-10-05T02:39:01.799Z,101966.09
2022-10-05T02:44:12.194Z,101976.22
2022-10-05T02:49:20.849Z,101982.63
2022-10-05T02:54:33.723Z,101988.78
2022-10-05T02:59:47.925Z,101978.25
2022-10-05T03:05:09.438Z,101976.50
2022-10-05T03:10:28.766Z,101997.03
2022-10-05T03:15:43.990Z,102002.31
2022-10-05T03:20:50.247Z,102019.25
2022-10-05T03:26:10.232Z,102024.28
2022-10-05T03:31:22.888Z,102034.84
2022-10-05T03:36:34.051Z,102029.09
2022-10-05T03:41:39.128Z,102029.09
2022-10-05T03:46:50.732Z,102040.88
2022-10-05T03:51:56.985Z,102044.31
2022-10-05T03:56:58.671Z,102061.88
2022-10-05T04:02:01.539Z,102070.88
2022-10-05T04:07:07.489Z,102072.91
2022-10-05T04:12:17.549Z,102081.00
2022-10-05T04:17:23.183Z,102090.75
2022-10-05T04:22:29.373Z,102101.38
2022-10-05T04:27:34.646Z,102111.25
2022-10-05T04:32:38.941Z,102129.09
2022-10-05T04:37:51.894Z,102128.44
2022-10-05T04:43:00.948Z,102128.00
2022-10-05T04:48:20.454Z,102129.13
2022-10-05T04:53:30.881Z,102137.13
2022-10-05T04:58:45.966Z,102144.13
2022-10-05T05:04:08.512Z,102143.56
2022-10-05T05:09:43.847Z,102145.00
2022-10-05T05:15:04.464Z,102152.00
2022-10-05T05:20:18.426Z,102154.84
2022-10-05T05:25:31.343Z,102166.88
2022-10-05T05:30:38.769Z,102164.28
2022-10-05T05:36:04.550Z,102164.59
2022-10-05T05:41:10.929Z,102180.00
2022-10-05T05:46:18.027Z,102190.78
2022-10-05T05:51:22.230Z,102186.78
2022-10-05T05:56:32.226Z,102188.56
2022-10-05T06:01:35.032Z,102197.16
2022-10-05T06:06:44.057Z,102197.41
2022-10-05T06:11:50.147Z,102199.84
2022-10-05T06:16:54.958Z,102205.41
2022-10-05T06:22:01.198Z,102217.00
2022-10-05T06:27:25.841Z,102233.06
2022-10-05T06:32:31.336Z,102243.19
2022-10-05T06:37:49.711Z,102249.78
2022-10-05T06:43:09.724Z,102255.38
2022-10-05T06:48:17.584Z,102259.88
2022-10-05T06:53:52.989Z,102254.66
2022-10-05T06:59:01.151Z,102258.84
2022-10-05T07:04:21.367Z,102258.28
2022-10-05T07:09:32.944Z,102266.28
2022-10-05T07:14:50.513Z,102243.69
2022-10-05T07:19:59.547Z,102240.50
2022-10-05T07:25:03.960Z,102249.84
2022-10-05T07:30:07.720Z,102254.81
2022-10-05T07:35:29.496Z,102262.13
2022-10-05T07:40:34.537Z,102263.41
2022-10-05T07:45:46.357Z,102275.56
2022-10-05T07:51:00.086Z,102272.47
2022-10-05T07:56:04.849Z,102263.69
2022-10-05T08:01:17.067Z,102263.28
2022-10-05T08:06:21.412Z,102274.03
2022-10-05T08:11:25.854Z,102271.31
2022-10-05T08:16:32.265Z,102282.28
2022-10-05T08:21:37.439Z,102291.44
2022-10-05T08:26:43.399Z,102286.53
2022-10-05T08:31:48.997Z,102287.13
2022-10-05T08:36:56.415Z,102291.09
2022-10-05T08:42:18.803Z,102297.00
2022-10-05T08:47:29.055Z,102294.81
2022-10-05T08:52:30.413Z,102300.84
2022-10-05T08:58:04.870Z,102292.19
2022-10-05T09:03:22.949Z,102296.09
2022-10-05T09:08:45.485Z,102285.72
2022-10-05T09:13:55.048Z,102286.31
2022-10-05T09:19:27.800Z,102293.50
2022-10-05T09:24:29.736Z,102285.28
2022-10-05T09:29:45.216Z,102279.63
2022-10-05T09:35:07.326Z,102281.16
2022-10-05T09:40:51.105Z,102276.19
2022-10-05T09:46:17.370Z,102270.16
2022-10-05T09:51:40.391Z,102262.72
2022-10-05T09:57:05.587Z,102265.25
2022-10-05T10:02:30.755Z,102263.47
2022-10-05T10:07:54.043Z,102252.28
2022-10-05T10:13:05.860Z,102240.16
2022-10-05T10:18:40.544Z,102236.00
2022-10-05T10:24:06.894Z,102237.72
2022-10-05T10:29:32.513Z,102220.41
2022-10-05T10:35:04.160Z,102220.94
2022-10-05T10:40:23.435Z,102215.00
2022-10-05T10:45:45.544Z,102204.38
2022-10-05T10:51:19.342Z,102190.00
2022-10-05T10:56:32.709Z,102183.94
2022-10-05T11:01:36.476Z,102181.50
2022-10-05T11:07:13.951Z,102179.72
2022-10-05T11:12:49.083Z,102161.28
2022-10-05T11:18:07.954Z,102153.75
2022-10-05T11:23:34.167Z,102152.09
2022-10-05T11:28:54.274Z,102150.00
2022-10-05T11:34:39.766Z,102138.75
2022-10-05T11:39:44.726Z,102141.34
2022-10-05T11:45:25.112Z,102147.75
2022-10-05T11:50:34.081Z,102154.53
2022-10-05T11:55:38.699Z,102167.03
2022-10-05T12:00:43.897Z,102172.66
2022-10-05T12:05:59.906Z,102169.22
2022-10-05T12:11:09.357Z,102162.03
2022-10-05T12:16:16.843Z,102158.69
2022-10-05T12:21:27.786Z,102147.28
2022-10-05T12:26:31.218Z,102134.28
2022-10-05T12:31:41.751Z,102134.94
2022-10-05T12:37:04.976Z,102116.16
2022-10-05T12:42:17.413Z,102100.06
2022-10-05T12:47:27.409Z,102109.00
2022-10-05T12:52:44.001Z,102116.78
2022-10-05T12:57:51.033Z,102121.66
2022-10-05T13:02:52.131Z,102125.84
2022-10-05T13:08:12.922Z,102126.59
2022-10-05T13:13:34.322Z,102124.38
2022-10-05T13:18:43.055Z,102135.78
2022-10-05T13:23:57.653Z,102130.69
2022-10-05T13:29:01.416Z,102129.22
2022-10-05T13:34:12.820Z,102121.44
2022-10-05T13:39:25.046Z,102105.59
2022-10-05T13:44:32.481Z,102109.13
2022-10-05T13:49:40.239Z,102107.94
2022-10-05T13:54:46.279Z,102102.91
2022-10-05T13:59:54.549Z,102097.53
2022-10-05T14:05:01.633Z,102093.75
2022-10-05T14:10:04.710Z,102097.25
2022-10-05T14:15:21.356Z,102086.91
2022-10-05T14:20:25.151Z,102088.78
2022-10-05T14:25:25.494Z,102097.00
2022-10-05T14:30:25.894Z,102099.69
2022-10-05T14:35:30.069Z,102103.72
2022-10-05T14:40:33.231Z,102101.53
2022-10-05T14:45:33.496Z,102109.28
2022-10-05T14:50:33.044Z,102107.63
2022-10-05T14:56:01.289Z,102101.13
2022-10-05T15:01:11.299Z,102105.41
2022-10-05T15:06:13.891Z,102106.28
2022-10-05T15:11:21.776Z,102111.38
2022-10-05T15:16:25.804Z,102118.09
2022-10-05T15:21:50.314Z,102117.81
2022-10-05T15:26:52.706Z,102126.88
2022-10-05T15:31:59.535Z,102145.19
2022-10-05T15:37:03.370Z,102142.34
2022-10-05T15:42:11.708Z,102140.78
2022-10-05T15:47:20.287Z,102143.06
2022-10-05T15:52:28.300Z,102151.47
2022-10-05T15:57:42.173Z,102145.97
2022-10-05T16:02:47.448Z,102151.38
2022-10-05T16:08:10.710Z,102166.69
2022-10-05T16:13:21.262Z,102161.00
2022-10-05T16:18:43.192Z,102160.59
2022-10-05T16:23:58.874Z,102168.25
2022-10-05T16:29:06.538Z,102169.72
2022-10-05T16:34:19.174Z,102177.59
2022-10-05T16:39:27.035Z,102175.81
2022-10-05T16:44:38.667Z,102180.75
2022-10-05T16:49:45.703Z,102186.16
2022-10-05T16:54:49.001Z,102192.91
2022-10-05T17:00:13.469Z,102194.66
2022-10-05T17:05:30.917Z,102196.97
2022-10-05T17:10:47.468Z,102195.31
2022-10-05T17:16:03.563Z,102207.03
2022-10-05T17:21:11.070Z,102212.97
2022-10-05T17:26:34.858Z,102217.66
2022-10-05T17:32:01.868Z,102222.06
2022-10-05T17:37:17.495Z,102225.22
2022-10-05T17:42:48.614Z,102232.25
2022-10-05T17:47:57.822Z,102236.97
2022-10-05T17:53:38.762Z,102238.69
2022-10-05T17:59:02.772Z,102245.94
2022-10-05T18:04:38.984Z,102250.00
2022-10-05T18:09:56.183Z,102250.31
2022-10-05T18:15:02.122Z,102262.06
2022-10-05T18:20:35.369Z,102256.69
2022-10-05T18:25:45.231Z,102256.53
2022-10-05T18:31:01.997Z,102259.13
2022-10-05T18:36:13.265Z,102259.16
2022-10-05T18:41:22.713Z,102246.69
2022-10-05T18:46:31.786Z,102257.13
2022-10-05T18:51:41.516Z,102252.00
2022-10-05T18:56:46.263Z,102261.03
2022-10-05T19:02:14.089Z,102260.56
2022-10-05T19:07:27.721Z,102260.66
2022-10-05T19:12:40.625Z,102260.16
2022-10-05T19:18:13.455Z,102263.78
2022-10-05T19:23:33.613Z,102269.47
2022-10-05T19:28:38.432Z,102260.88
2022-10-05T19:33:57.187Z,102265.81
2022-10-05T19:39:08.148Z,102270.09
2022-10-05T19:44:20.023Z,102267.22
2022-10-05T19:49:37.511Z,102280.41
2022-10-05T19:54:37.736Z,102272.59
2022-10-05T19:59:40.582Z,102277.25
2022-10-05T20:04:44.760Z,102287.38
2022-10-05T20:09:53.624Z,102289.75
2022-10-05T20:15:27.543Z,102298.34
2022-10-05T20:20:36.633Z,102286.25
2022-10-05T20:25:40.336Z,102291.75
2022-10-05T20:30:39.110Z,102287.81
2022-10-05T20:35:37.808Z,102286.28
2022-10-05T20:40:39.096Z,102286.59
2022-10-05T20:45:43.845Z,102284.50
2022-10-05T20:50:42.601Z,102285.88
2022-10-05T20:55:43.177Z,102279.94
2022-10-05T21:00:59.487Z,102284.69
2022-10-05T21:05:59.346Z,102287.78
2022-10-05T21:10:59.836Z,102278.09
2022-10-05T21:15:58.625Z,102273.09
2022-10-05T21:21:01.397Z,102265.41
2022-10-05T21:26:02.711Z,102264.97
2022-10-05T21:31:01.526Z,102269.06
2022-10-05T21:36:00.408Z,102252.47
2022-10-05T21:40:59.565Z,102258.81
2022-10-05T21:46:01.116Z,102252.16
2022-10-05T21:51:00.931Z,102260.41
2022-10-05T21:56:02.888Z,102263.53
2022-10-05T22:01:03.410Z,102259.44
2022-10-05T22:06:03.774Z,102256.69
2022-10-05T22:11:10.234Z,102248.34
2022-10-05T22:16:10.894Z,102254.09
2022-10-05T22:21:12.437Z,102254.44
2022-10-05T22:26:13.717Z,102249.50
2022-10-05T22:31:14.975Z,102242.00
2022-10-05T22:36:13.803Z,102253.06
2022-10-05T22:41:13.291Z,102254.50
2022-10-05T22:46:14.623Z,102244.25
2022-10-05T22:51:13.894Z,102250.84
2022-10-05T22:56:14.262Z,102250.13
2022-10-05T23:01:16.840Z,102251.56
2022-10-05T23:06:18.349Z,102252.81
2022-10-05T23:11:19.263Z,102248.50
2022-10-05T23:16:21.186Z,102246.72
2022-10-05T23:21:20.847Z,102246.72
2022-10-05T23:26:22.996Z,102242.78
2022-10-05T23:31:25.581Z,102235.16
2022-10-05T23:36:25.873Z,102237.00
2022-10-05T23:41:25.071Z,102234.31
2022-10-05T23:46:25.788Z,102227.34
2022-10-05T23:51:24.541Z,102238.19
2022-10-05T23:56:23.382Z,102241.00
